Time;durP1;ratioP1;P1;durP2;ratioP2;P2;SDS_P1;SDS_P2;PMS_P1;PMS_P2;Temp;Humidity;BMP_temperature;BMP_pressure;BME280_temperature;BME280_humidity;BME280_pressure;Samples;Min_cycle;Max_cycle;Signal;HPM_P1;HPM_P2
2023/09/28 00:01:04;;;;;;;11.10;7.80;;;16.40;99.90;;;;;;2603081;54;19946;31
2023/09/28 00:03:38;;;;;;;11.38;7.10;;;16.30;99.90;;;;;;2603286;54;20030;31
2023/09/28 00:09:00;;;;;;;13.27;7.45;;;16.30;99.90;;;;;;2603273;54;20027;31
2023/09/28 00:11:32;;;;;;;11.60;7.40;;;16.20;99.90;;;;;;2621407;46;20022;31
2023/09/28 00:14:11;;;;;;;10.70;7.38;;;16.20;99.90;;;;;;2701504;39;21817;31
2023/09/28 00:16:46;;;;;;;13.52;7.60;;;16.20;99.90;;;;;;2603416;54;20880;31
2023/09/28 00:19:26;;;;;;;9.75;7.15;;;16.20;99.90;;;;;;2603091;54;20026;31
2023/09/28 00:22:06;;;;;;;9.52;7.07;;;16.20;99.90;;;;;;2621607;46;20027;31
2023/09/28 00:24:38;;;;;;;10.32;6.05;;;16.10;99.90;;;;;;2614953;46;20030;31
2023/09/28 00:27:16;;;;;;;9.15;7.05;;;16.10;99.90;;;;;;2621767;46;20031;31
2023/09/28 00:32:35;;;;;;;17.75;8.02;;;16.00;99.90;;;;;;2621778;46;21214;31
2023/09/28 00:35:12;;;;;;;12.23;7.22;;;16.00;99.90;;;;;;2603260;54;20030;31
2023/09/28 00:37:48;;;;;;;12.60;7.80;;;16.00;99.90;;;;;;2603358;54;20089;31
2023/09/28 00:40:28;;;;;;;12.65;7.80;;;16.00;99.90;;;;;;2602489;54;20026;31
2023/09/28 00:43:02;;;;;;;14.55;7.68;;;15.90;99.90;;;;;;2602301;54;20132;31
2023/09/28 00:45:37;;;;;;;11.30;6.95;;;15.90;99.90;;;;;;2701869;39;21466;31
2023/09/28 00:48:18;;;;;;;14.80;7.67;;;15.90;99.90;;;;;;2603304;54;20022;31
2023/09/28 00:51:02;;;;;;;12.50;9.05;;;15.90;99.90;;;;;;2622170;46;20821;31
2023/09/28 00:53:41;;;;;;;12.82;7.47;;;15.80;99.90;;;;;;2603084;54;20026;31
2023/09/28 00:56:18;;;;;;;11.10;7.05;;;15.80;99.90;;;;;;2603161;54;20026;31
2023/09/28 00:58:56;;;;;;;10.90;8.65;;;15.70;99.90;;;;;;2602484;54;20034;31
2023/09/28 01:01:31;;;;;;;12.95;8.60;;;15.60;99.90;;;;;;2621385;46;20937;31
2023/09/28 01:04:13;;;;;;;14.55;8.48;;;15.60;99.90;;;;;;2603155;54;20858;31
2023/09/28 01:06:48;;;;;;;14.55;8.15;;;15.60;99.90;;;;;;2621735;46;20033;31
2023/09/28 01:09:26;;;;;;;12.95;7.55;;;15.50;99.90;;;;;;2602493;54;20046;31
2023/09/28 01:12:03;;;;;;;16.02;8.30;;;15.60;99.90;;;;;;2603366;54;20042;31
2023/09/28 01:14:38;;;;;;;13.00;8.27;;;15.50;99.90;;;;;;2603113;54;20034;31
2023/09/28 01:17:13;;;;;;;13.43;8.02;;;15.40;99.90;;;;;;2603035;54;20026;31
2023/09/28 01:19:48;;;;;;;13.35;8.27;;;15.40;99.90;;;;;;2602973;54;20117;31
2023/09/28 01:22:28;;;;;;;14.23;8.27;;;15.40;99.90;;;;;;2603021;54;19937;31
2023/09/28 01:25:08;;;;;;;12.27;7.90;;;15.30;99.90;;;;;;2621747;47;20923;31
2023/09/28 01:27:46;;;;;;;15.40;8.88;;;15.30;99.90;;;;;;2622002;46;20027;31
2023/09/28 01:30:25;;;;;;;13.13;8.00;;;15.30;99.90;;;;;;2603833;54;20081;31
2023/09/28 01:33:00;;;;;;;12.23;7.82;;;15.20;99.90;;;;;;2603776;54;20777;31
2023/09/28 01:35:37;;;;;;;14.60;8.83;;;15.20;99.90;;;;;;2603758;54;20031;31
2023/09/28 01:38:16;;;;;;;14.27;8.30;;;15.20;99.90;;;;;;2602944;54;20246;31
2023/09/28 01:40:53;;;;;;;10.20;7.35;;;15.20;99.90;;;;;;2603113;54;20056;31
2023/09/28 01:43:26;;;;;;;13.95;8.30;;;15.10;99.90;;;;;;2621847;46;20026;31
2023/09/28 01:46:04;;;;;;;13.13;7.53;;;15.00;99.90;;;;;;2620442;46;20097;31
2023/09/28 01:48:37;;;;;;;11.75;7.80;;;15.10;99.90;;;;;;2603684;54;20026;31
2023/09/28 01:51:12;;;;;;;13.43;8.17;;;15.00;99.90;;;;;;2603873;54;20053;31
2023/09/28 01:53:48;;;;;;;15.93;8.30;;;15.00;99.90;;;;;;2620107;46;20234;31
2023/09/28 01:56:23;;;;;;;13.60;7.90;;;15.00;99.90;;;;;;2603719;54;20046;31
2023/09/28 01:58:57;;;;;;;;;;;14.90;99.90;;;;;;2603869;54;20031;31
2023/09/28 02:01:35;;;;;;;11.18;7.78;;;14.90;99.90;;;;;;2603465;54;20744;31
2023/09/28 02:04:08;;;;;;;14.50;9.05;;;14.90;99.90;;;;;;2603569;54;20034;31
2023/09/28 02:06:44;;;;;;;11.15;7.80;;;14.80;99.90;;;;;;2603744;54;20027;31
2023/09/28 02:09:26;;;;;;;13.55;8.15;;;14.80;99.90;;;;;;2603709;54;20893;31
2023/09/28 02:12:04;;;;;;;15.40;9.17;;;14.80;99.90;;;;;;2622407;46;20037;31
2023/09/28 02:14:41;;;;;;;15.75;7.70;;;14.80;99.90;;;;;;2603842;54;20813;31
2023/09/28 02:17:14;;;;;;;15.73;9.23;;;14.70;99.90;;;;;;2603704;54;20026;31
2023/09/28 02:19:54;;;;;;;12.60;8.57;;;14.70;99.90;;;;;;2603691;54;20128;31
2023/09/28 02:22:32;;;;;;;12.30;7.85;;;14.70;99.90;;;;;;2603665;54;20275;31
2023/09/28 02:25:09;;;;;;;17.40;8.45;;;14.60;99.90;;;;;;2603839;54;19941;31
2023/09/28 02:27:48;;;;;;;14.95;8.82;;;14.60;99.90;;;;;;2621872;46;20027;31
2023/09/28 02:30:26;;;;;;;12.03;8.07;;;14.60;99.90;;;;;;2603736;54;20864;31
2023/09/28 02:33:00;;;;;;;21.63;9.38;;;14.50;99.90;;;;;;2622005;46;20030;31
2023/09/28 02:35:48;;;;;;;16.42;9.32;;;14.50;99.90;;;;;;2602716;54;20056;31
2023/09/28 02:38:21;;;;;;;15.95;8.65;;;14.50;99.90;;;;;;2603498;54;20033;31
2023/09/28 02:40:59;;;;;;;11.90;8.53;;;14.40;99.90;;;;;;2622021;46;20032;31
2023/09/28 02:43:36;;;;;;;11.85;7.95;;;14.50;99.90;;;;;;2603624;54;20741;31
2023/09/28 02:46:16;;;;;;;14.67;8.87;;;14.50;99.90;;;;;;2622081;46;20027;31
2023/09/28 02:48:55;;;;;;;13.68;8.25;;;14.40;99.90;;;;;;2603408;54;20081;31
2023/09/28 02:51:34;;;;;;;15.88;9.13;;;14.40;99.90;;;;;;2603587;54;20032;31
2023/09/28 02:54:11;;;;;;;11.17;8.40;;;14.40;99.90;;;;;;2603478;54;20026;31
2023/09/28 02:56:50;;;;;;;13.55;8.45;;;14.40;99.90;;;;;;2603619;54;20250;31
2023/09/28 02:59:29;;;;;;;12.73;8.98;;;14.40;99.90;;;;;;2603462;54;20850;31
2023/09/28 03:02:13;;;;;;;18.87;9.90;;;14.40;99.90;;;;;;2603580;54;19935;31
2023/09/28 03:07:29;;;;;;;19.52;9.93;;;14.30;99.90;;;;;;2603513;54;20034;31
2023/09/28 03:10:10;;;;;;;18.50;9.80;;;14.30;99.90;;;;;;2603381;54;20030;31
2023/09/28 03:12:46;;;;;;;19.40;9.88;;;14.20;99.90;;;;;;2621862;46;21225;31
2023/09/28 03:15:24;;;;;;;15.07;8.95;;;14.20;99.90;;;;;;2603657;54;20093;31
2023/09/28 03:18:03;;;;;;;16.83;9.93;;;14.20;99.90;;;;;;2603219;54;20815;31
2023/09/28 03:20:45;;;;;;;14.10;9.57;;;14.10;99.90;;;;;;2603413;54;20040;31
2023/09/28 03:23:28;;;;;;;18.20;11.23;;;14.10;99.90;;;;;;2603368;54;20030;31
2023/09/28 03:26:07;;;;;;;17.40;10.75;;;14.10;99.90;;;;;;2602555;54;20018;31
2023/09/28 03:28:46;;;;;;;19.35;11.02;;;14.10;99.90;;;;;;2602786;54;20915;31
2023/09/28 03:31:27;;;;;;;15.75;10.25;;;14.10;99.90;;;;;;2602729;54;20914;31
2023/09/28 03:34:11;;;;;;;19.73;10.70;;;14.10;99.90;;;;;;2603600;54;20026;31
2023/09/28 03:36:49;;;;;;;17.17;10.60;;;14.10;99.90;;;;;;2618808;46;20782;31
2023/09/28 03:39:25;;;;;;;20.67;11.47;;;14.10;99.90;;;;;;2603654;54;20026;31
2023/09/28 03:42:03;;;;;;;18.55;11.02;;;14.00;99.90;;;;;;2603529;54;20089;31
2023/09/28 03:44:38;;;;;;;17.10;11.10;;;14.00;99.90;;;;;;2603310;54;20030;31
2023/09/28 03:47:17;;;;;;;18.80;11.30;;;13.90;99.90;;;;;;2603186;54;20912;31
2023/09/28 03:50:00;;;;;;;17.90;11.32;;;13.90;99.90;;;;;;2603351;54;20085;31
2023/09/28 03:52:42;;;;;;;25.77;11.88;;;13.80;99.90;;;;;;2603419;54;20875;31
2023/09/28 03:55:21;;;;;;;15.93;10.80;;;13.80;99.90;;;;;;2603434;54;20030;31
2023/09/28 03:58:02;;;;;;;18.05;11.30;;;13.80;99.90;;;;;;2603336;54;20244;31
2023/09/28 04:00:39;;;;;;;15.07;11.07;;;13.80;99.90;;;;;;2603230;54;20042;31
2023/09/28 04:03:21;;;;;;;16.55;8.98;;;13.80;99.90;;;;;;2603276;54;20117;31
2023/09/28 04:05:58;;;;;;;19.40;10.98;;;13.70;99.90;;;;;;2720901;39;20988;31
2023/09/28 04:08:40;;;;;;;21.80;11.90;;;13.80;99.90;;;;;;2603193;54;20023;31
2023/09/28 04:11:19;;;;;;;16.95;11.80;;;13.80;99.90;;;;;;2602969;54;20085;31
2023/09/28 04:13:54;;;;;;;;;;;13.80;99.90;;;;;;2701227;39;21556;31
2023/09/28 04:16:33;;;;;;;20.02;10.85;;;13.80;99.90;;;;;;2603370;54;19935;31
2023/09/28 04:19:17;;;;;;;20.40;11.57;;;13.80;99.90;;;;;;2603224;54;20776;31
2023/09/28 04:21:53;;;;;;;16.63;11.43;;;13.80;99.90;;;;;;2603254;54;20953;31
2023/09/28 04:24:32;;;;;;;20.92;12.45;;;13.80;99.90;;;;;;2602685;54;20876;31
2023/09/28 04:27:11;;;;;;;17.55;11.50;;;13.80;99.90;;;;;;2616333;46;20103;31
2023/09/28 04:29:47;;;;;;;24.23;11.73;;;13.70;99.90;;;;;;2602551;54;20758;31
2023/09/28 04:32:27;;;;;;;18.05;11.15;;;13.70;99.90;;;;;;2602467;54;20031;31
2023/09/28 04:35:10;;;;;;;20.35;12.60;;;13.70;99.90;;;;;;2603059;54;20037;31
2023/09/28 04:37:50;;;;;;;18.57;11.03;;;13.70;99.90;;;;;;2603397;54;20022;31
2023/09/28 04:40:31;;;;;;;21.80;13.13;;;13.60;99.90;;;;;;2621844;46;20034;31
2023/09/28 04:45:49;;;;;;;19.60;13.30;;;13.60;99.90;;;;;;2621943;46;20026;31
2023/09/28 04:48:26;;;;;;;16.35;10.95;;;13.60;99.90;;;;;;2603256;54;20037;31
2023/09/28 04:51:05;;;;;;;19.83;11.98;;;13.50;99.90;;;;;;2603020;54;20031;31
2023/09/28 04:53:43;;;;;;;16.70;11.55;;;13.50;99.90;;;;;;2603323;54;20026;31
2023/09/28 04:56:24;;;;;;;17.60;11.80;;;13.50;99.90;;;;;;2603202;54;20030;31
2023/09/28 04:59:04;;;;;;;21.40;12.70;;;13.50;99.90;;;;;;2602903;54;19938;31
2023/09/28 05:01:41;;;;;;;21.20;12.52;;;13.30;99.90;;;;;;2603094;54;20030;31
2023/09/28 05:04:18;;;;;;;21.70;12.55;;;13.40;99.90;;;;;;2603127;54;20022;31
2023/09/28 05:07:00;;;;;;;23.15;12.95;;;13.40;99.90;;;;;;2617307;46;20069;31
2023/09/28 05:09:38;;;;;;;23.80;12.70;;;13.40;99.90;;;;;;2602200;54;20026;31
2023/09/28 05:12:15;;;;;;;18.70;12.52;;;13.40;99.90;;;;;;2603103;54;20026;31
2023/09/28 05:14:57;;;;;;;18.10;12.75;;;13.50;99.90;;;;;;2603214;54;21503;31
2023/09/28 05:17:34;;;;;;;19.48;12.73;;;13.50;99.90;;;;;;2603110;54;20023;31
2023/09/28 05:20:13;;;;;;;21.25;12.40;;;13.50;99.90;;;;;;2621514;47;20027;31
2023/09/28 05:22:55;;;;;;;27.15;13.73;;;13.50;99.90;;;;;;2621366;47;20096;31
2023/09/28 05:25:30;;;;;;;20.65;12.73;;;13.50;99.90;;;;;;2701474;39;20366;31
2023/09/28 05:28:14;;;;;;;;;;;13.60;99.90;;;;;;2603136;54;20042;31
2023/09/28 05:30:53;;;;;;;22.45;12.73;;;13.60;99.90;;;;;;2621027;47;19982;31
2023/09/28 05:33:33;;;;;;;18.73;13.35;;;13.60;99.90;;;;;;2602386;54;20966;31
2023/09/28 05:36:10;;;;;;;23.25;13.60;;;13.70;99.90;;;;;;2602792;54;20032;31
2023/09/28 05:38:57;;;;;;;25.00;13.95;;;13.70;99.90;;;;;;2603058;54;20093;31
2023/09/28 05:41:33;;;;;;;21.10;12.60;;;13.80;99.90;;;;;;2603147;54;20085;31
2023/09/28 05:44:16;;;;;;;23.48;12.85;;;14.10;99.90;;;;;;2603176;54;20049;31
2023/09/28 05:46:53;;;;;;;19.83;12.35;;;14.40;99.90;;;;;;2602909;54;20918;31
2023/09/28 05:49:31;;;;;;;18.42;12.27;;;14.70;99.90;;;;;;2603039;54;19988;31
2023/09/28 05:52:15;;;;;;;25.25;12.82;;;15.10;99.90;;;;;;2616557;47;20034;31
2023/09/28 05:54:56;;;;;;;19.75;12.05;;;15.60;99.90;;;;;;2602850;54;20843;31
2023/09/28 05:57:32;;;;;;;20.58;11.13;;;16.10;99.90;;;;;;2602949;54;20120;31
2023/09/28 06:00:15;;;;;;;18.27;10.63;;;16.50;99.90;;;;;;2619192;47;20056;31
2023/09/28 06:02:55;;;;;;;15.40;10.35;;;16.90;99.90;;;;;;2602106;54;20867;31
2023/09/28 06:05:43;;;;;;;17.85;10.90;;;17.30;99.90;;;;;;2602038;54;20902;31
2023/09/28 06:08:23;;;;;;;19.00;11.45;;;17.70;99.90;;;;;;2602839;54;20027;31
2023/09/28 06:11:06;;;;;;;16.85;10.55;;;18.20;99.90;;;;;;2603305;54;20027;31
2023/09/28 06:13:47;;;;;;;18.17;10.95;;;18.50;99.90;;;;;;2603772;54;20104;31
2023/09/28 06:16:42;;;;;;;16.38;10.10;;;18.90;99.90;;;;;;2603638;54;20830;31
2023/09/28 06:19:21;;;;;;;18.50;11.20;;;19.30;99.90;;;;;;2602889;54;20097;31
2023/09/28 06:21:59;;;;;;;17.08;10.60;;;19.50;99.90;;;;;;2603002;54;20290;31
2023/09/28 06:24:33;;;;;;;16.90;10.40;;;19.80;99.90;;;;;;2603485;54;20022;31
2023/09/28 06:27:16;;;;;;;16.00;10.15;;;20.20;99.90;;;;;;2603510;54;20136;31
2023/09/28 06:30:01;;;;;;;13.75;10.20;;;20.30;99.90;;;;;;2603543;54;20027;31
2023/09/28 06:32:38;;;;;;;16.10;10.27;;;20.60;99.90;;;;;;2621798;46;20026;31
2023/09/28 06:35:16;;;;;;;14.88;9.60;;;20.80;99.90;;;;;;2603525;54;20800;31
2023/09/28 06:38:00;;;;;;;16.17;10.50;;;21.00;99.90;;;;;;2621681;46;20030;31
2023/09/28 06:40:40;;;;;;;16.07;9.90;;;21.20;99.90;;;;;;2603232;54;20882;31
2023/09/28 06:43:39;;;;;;;14.98;10.40;;;21.30;99.90;;;;;;2603684;54;20984;31
2023/09/28 06:46:19;;;;;;;15.10;10.25;;;21.40;99.90;;;;;;2603512;54;20030;31
2023/09/28 06:48:57;;;;;;;18.15;10.73;;;21.50;99.90;;;;;;2603046;54;20901;31
2023/09/28 06:51:38;;;;;;;15.57;8.63;;;21.70;99.90;;;;;;2602851;54;20898;31
2023/09/28 06:54:17;;;;;;;13.25;9.10;;;21.90;99.90;;;;;;2602985;54;20164;31
2023/09/28 06:56:54;;;;;;;16.40;10.60;;;22.00;99.90;;;;;;2603435;54;20076;31
2023/09/28 06:59:40;;;;;;;13.68;9.43;;;22.00;99.90;;;;;;2602763;54;20871;31
2023/09/28 07:02:17;;;;;;;13.30;9.27;;;21.90;99.90;;;;;;2772685;31;20535;31
2023/09/28 07:04:56;;;;;;;11.25;8.93;;;22.10;99.90;;;;;;2603523;54;19973;31
2023/09/28 07:07:35;;;;;;;16.70;9.60;;;22.20;99.90;;;;;;2621977;46;20053;31
2023/09/28 07:10:13;;;;;;;15.10;9.07;;;22.30;99.90;;;;;;2603398;54;20876;31
2023/09/28 07:12:50;;;;;;;12.27;8.38;;;22.40;99.90;;;;;;2603481;54;20042;31
2023/09/28 07:15:47;;;;;;;10.15;8.07;;;22.60;99.90;;;;;;2622017;46;20030;31
2023/09/28 07:18:26;;;;;;;13.88;7.18;;;22.60;99.90;;;;;;2603190;54;20037;31
2023/09/28 07:21:02;;;;;;;12.90;8.05;;;22.60;99.90;;;;;;2603318;54;20029;31
2023/09/28 07:23:41;;;;;;;12.10;7.20;;;22.80;99.90;;;;;;2603316;54;20027;31
2023/09/28 07:26:18;;;;;;;10.80;6.78;;;23.10;99.90;;;;;;2603336;54;20981;31
2023/09/28 07:28:54;;;;;;;11.30;7.15;;;23.30;99.90;;;;;;2603559;54;20501;31
2023/09/28 07:31:37;;;;;;;11.75;7.75;;;23.50;99.90;;;;;;2622157;46;20035;31
2023/09/28 07:34:15;;;;;;;15.93;7.45;;;23.40;99.90;;;;;;2621932;46;20033;31
2023/09/28 07:36:52;;;;;;;12.15;7.07;;;23.70;99.90;;;;;;2602558;54;20908;31
2023/09/28 07:39:32;;;;;;;15.95;7.15;;;23.80;99.90;;;;;;2602658;54;20958;31
2023/09/28 07:42:10;;;;;;;8.15;5.70;;;24.00;99.90;;;;;;2602533;54;20934;31
2023/09/28 07:44:51;;;;;;;12.17;6.80;;;24.10;99.90;;;;;;2602633;54;20037;31
2023/09/28 07:47:33;;;;;;;10.15;6.68;;;24.40;99.90;;;;;;2603561;54;21199;31
2023/09/28 07:50:14;;;;;;;9.13;5.90;;;24.60;99.90;;;;;;2603530;54;20030;31
2023/09/28 07:52:51;;;;;;;13.18;6.43;;;24.90;99.90;;;;;;2612274;46;21129;31
2023/09/28 07:55:29;;;;;;;9.35;6.80;;;25.00;99.90;;;;;;2621788;46;20089;31
2023/09/28 07:58:08;;;;;;;7.60;5.13;;;25.00;99.90;;;;;;2603476;54;20030;31
2023/09/28 08:01:01;;;;;;;9.98;6.05;;;25.10;99.90;;;;;;2603255;54;19934;31
2023/09/28 08:03:44;;;;;;;8.65;5.22;;;25.10;99.90;;;;;;2603236;54;20026;31
2023/09/28 08:06:21;;;;;;;10.50;5.43;;;25.30;99.90;;;;;;2603189;54;20036;31
2023/09/28 08:09:13;;;;;;;8.73;5.57;;;25.40;99.90;;;;;;2603315;54;20797;31
2023/09/28 08:11:49;;;;;;;8.83;5.33;;;25.50;99.90;;;;;;2603461;54;20027;31
2023/09/28 08:14:27;;;;;;;7.15;5.28;;;25.60;99.90;;;;;;2603200;54;20888;31
2023/09/28 08:17:05;;;;;;;9.30;4.93;;;25.60;99.90;;;;;;2602742;54;20105;31
2023/09/28 08:19:46;;;;;;;13.50;5.23;;;25.70;99.90;;;;;;2602647;54;20895;31
2023/09/28 08:22:26;;;;;;;6.20;4.97;;;25.70;99.90;;;;;;2621362;46;20249;31
2023/09/28 08:25:01;;;;;;;7.60;5.07;;;25.70;99.90;;;;;;2617096;46;20751;31
2023/09/28 08:27:41;;;;;;;8.15;5.15;;;26.10;99.90;;;;;;2602367;54;20166;31
2023/09/28 08:30:19;;;;;;;10.55;4.55;;;26.40;99.90;;;;;;2602655;54;20026;31
2023/09/28 08:33:13;;;;;;;9.93;4.50;;;26.50;99.90;;;;;;2602294;54;21580;31
2023/09/28 08:35:56;;;;;;;7.85;4.63;;;26.60;99.90;;;;;;2603278;54;20816;31
2023/09/28 08:38:37;;;;;;;7.37;4.53;;;26.60;99.90;;;;;;2603202;54;20034;31
2023/09/28 08:41:16;;;;;;;10.00;4.72;;;26.70;99.90;;;;;;2621971;46;20026;31
2023/09/28 08:43:55;;;;;;;6.35;4.30;;;26.80;99.90;;;;;;2602565;54;20045;31
2023/09/28 08:46:37;;;;;;;6.70;4.20;;;27.00;99.90;;;;;;2602675;54;20037;31
2023/09/28 08:49:21;;;;;;;5.80;3.97;;;27.30;99.90;;;;;;2603117;54;20030;31
2023/09/28 08:52:02;;;;;;;6.00;4.20;;;27.40;99.90;;;;;;2602419;54;20034;31
2023/09/28 08:54:39;;;;;;;8.15;4.00;;;27.40;99.90;;;;;;2603208;54;20033;31
2023/09/28 08:57:16;;;;;;;11.52;4.40;;;27.40;99.90;;;;;;2603041;54;20812;31
2023/09/28 08:59:59;;;;;;;8.65;3.60;;;27.40;99.90;;;;;;2603199;54;20058;31
2023/09/28 09:02:35;;;;;;;6.50;4.00;;;27.30;99.90;;;;;;2602988;54;20026;31
2023/09/28 09:05:11;;;;;;;;;;;27.30;99.90;;;;;;2621895;46;20030;31
2023/09/28 09:07:55;;;;;;;6.13;3.63;;;27.40;99.90;;;;;;2603066;54;19941;31
2023/09/28 09:10:30;;;;;;;7.05;3.42;;;27.50;99.90;;;;;;2603098;54;20775;31
2023/09/28 09:13:12;;;;;;;8.30;3.90;;;27.60;99.90;;;;;;2602277;54;20041;31
2023/09/28 09:15:53;;;;;;;6.25;3.95;;;27.60;99.90;;;;;;2603062;54;20068;31
2023/09/28 09:18:33;;;;;;;3.87;2.80;;;27.50;99.90;;;;;;2603113;54;20038;31
2023/09/28 09:21:09;;;;;;;8.57;3.40;;;27.50;99.90;;;;;;2612849;47;20018;31
2023/09/28 09:24:10;;;;;;;9.80;3.20;;;27.50;99.90;;;;;;2603157;54;20085;31
2023/09/28 09:26:47;;;;;;;8.07;2.97;;;27.60;99.90;;;;;;2603226;54;20815;31
2023/09/28 09:29:29;;;;;;;4.40;3.30;;;27.70;99.90;;;;;;2603010;54;20052;31
2023/09/28 09:32:05;;;;;;;5.95;2.85;;;27.70;99.90;;;;;;2602324;54;20051;31
2023/09/28 09:34:42;;;;;;;5.60;3.30;;;27.70;99.90;;;;;;2602986;54;20112;31
2023/09/28 09:37:19;;;;;;;9.13;2.88;;;27.80;99.60;;;;;;2603012;54;20595;31
2023/09/28 09:40:03;;;;;;;5.67;3.20;;;27.80;98.60;;;;;;2603070;54;20023;31
2023/09/28 09:42:41;;;;;;;3.83;2.75;;;27.80;98.90;;;;;;2603076;54;20031;31
2023/09/28 09:48:07;;;;;;;5.43;2.93;;;27.70;98.20;;;;;;2603823;54;20030;31
2023/09/28 09:50:47;;;;;;;5.93;3.07;;;27.80;97.50;;;;;;2622530;46;20234;31
2023/09/28 09:53:23;;;;;;;7.07;3.10;;;27.80;97.20;;;;;;2622432;46;20238;31
2023/09/28 09:56:04;;;;;;;3.63;2.70;;;27.90;96.70;;;;;;2603776;54;20052;31
2023/09/28 09:58:40;;;;;;;5.75;3.17;;;27.80;97.10;;;;;;2603920;54;20030;31
2023/09/28 10:01:19;;;;;;;5.85;3.17;;;27.80;97.40;;;;;;2603945;54;20022;31
2023/09/28 10:03:55;;;;;;;8.07;4.20;;;27.90;97.50;;;;;;2603847;54;20052;31
2023/09/28 10:06:35;;;;;;;7.57;2.67;;;28.00;97.30;;;;;;2604058;54;19953;31
2023/09/28 10:09:13;;;;;;;4.93;3.08;;;28.00;96.50;;;;;;2622254;46;20027;31
2023/09/28 10:11:53;;;;;;;7.65;3.05;;;28.00;96.80;;;;;;2622410;46;19934;31
2023/09/28 10:14:26;;;;;;;3.90;3.03;;;28.00;96.50;;;;;;2603722;54;20030;31
2023/09/28 10:17:06;;;;;;;9.13;3.17;;;27.90;96.40;;;;;;2603736;54;20026;31
2023/09/28 10:19:40;;;;;;;3.75;2.70;;;28.00;96.60;;;;;;2603800;54;19935;31
2023/09/28 10:22:18;;;;;;;6.55;2.70;;;27.90;95.40;;;;;;2603819;54;20031;31
2023/09/28 10:24:58;;;;;;;5.73;2.83;;;27.90;95.70;;;;;;2603732;54;20089;31
2023/09/28 10:27:39;;;;;;;4.20;3.03;;;27.90;96.20;;;;;;2603058;54;20025;31
2023/09/28 10:30:21;;;;;;;8.75;4.10;;;27.70;95.20;;;;;;2602977;54;20860;31
2023/09/28 10:33:00;;;;;;;5.75;3.42;;;27.70;95.40;;;;;;2605689;46;20026;31
2023/09/28 10:35:40;;;;;;;5.72;3.08;;;27.60;95.40;;;;;;2603519;54;20096;31
2023/09/28 10:38:42;;;;;;;4.57;2.95;;;27.60;95.90;;;;;;2702202;39;20386;31
2023/09/28 10:41:20;;;;;;;8.30;2.80;;;27.60;95.90;;;;;;2603472;54;20022;31
2023/09/28 10:44:01;;;;;;;5.68;2.85;;;27.60;95.50;;;;;;2603683;54;20497;31
2023/09/28 10:46:43;;;;;;;5.78;2.60;;;27.60;95.40;;;;;;2603072;54;20035;31
2023/09/28 10:49:20;;;;;;;4.63;2.97;;;27.60;95.80;;;;;;2602850;54;20026;31
2023/09/28 10:51:55;;;;;;;4.15;2.60;;;27.70;96.00;;;;;;2602929;54;20052;31
2023/09/28 10:54:31;;;;;;;5.88;3.25;;;27.70;95.20;;;;;;2603581;54;20795;31
2023/09/28 10:57:11;;;;;;;7.40;2.93;;;27.60;95.00;;;;;;2622329;46;20030;31
2023/09/28 10:59:48;;;;;;;9.73;3.28;;;27.70;95.60;;;;;;2603586;54;20033;31
2023/09/28 11:02:22;;;;;;;5.43;3.03;;;27.70;96.10;;;;;;2603380;54;20022;31
2023/09/28 11:05:12;;;;;;;5.20;3.35;;;27.70;95.90;;;;;;2602758;54;20840;31
2023/09/28 11:07:52;;;;;;;3.60;2.67;;;27.80;95.20;;;;;;2603852;54;20101;31
2023/09/28 11:10:31;;;;;;;6.38;2.67;;;27.70;94.00;;;;;;2621625;46;20037;31
2023/09/28 11:13:04;;;;;;;7.00;2.80;;;27.70;95.30;;;;;;2602919;54;21957;31
2023/09/28 11:15:41;;;;;;;4.53;2.70;;;27.60;93.90;;;;;;2603497;54;20142;31
2023/09/28 11:18:20;;;;;;;7.88;2.63;;;27.60;94.20;;;;;;2603555;54;20046;31
2023/09/28 11:20:59;;;;;;;4.43;2.50;;;27.50;94.40;;;;;;2603489;54;20855;31
2023/09/28 11:23:35;;;;;;;3.85;2.70;;;27.50;94.70;;;;;;2603568;54;20030;31
2023/09/28 11:26:14;;;;;;;6.20;2.70;;;27.50;94.50;;;;;;2603596;54;20052;31
2023/09/28 11:28:56;;;;;;;5.82;3.20;;;27.60;94.50;;;;;;2603194;54;20969;31
2023/09/28 11:31:35;;;;;;;5.75;2.75;;;27.60;95.00;;;;;;2603780;54;20030;31
2023/09/28 11:34:12;;;;;;;5.13;2.65;;;27.60;94.60;;;;;;2610975;46;20116;31
2023/09/28 11:37:02;;;;;;;3.85;2.55;;;27.60;94.20;;;;;;2602659;54;20036;31
2023/09/28 11:39:41;;;;;;;4.72;2.72;;;27.50;94.20;;;;;;2622058;46;20116;31
2023/09/28 11:42:18;;;;;;;5.47;2.95;;;27.40;94.50;;;;;;2603542;54;20145;31
2023/09/28 11:45:02;;;;;;;7.90;2.47;;;27.50;95.40;;;;;;2720230;39;21568;31
2023/09/28 11:47:42;;;;;;;5.13;2.58;;;27.40;94.30;;;;;;2602796;54;20856;31
2023/09/28 11:50:22;;;;;;;5.13;2.50;;;27.50;93.70;;;;;;2603499;54;20027;31
2023/09/28 11:52:58;;;;;;;4.60;2.80;;;27.50;93.70;;;;;;2603545;54;20922;31
2023/09/28 11:55:37;;;;;;;7.57;3.10;;;27.50;94.70;;;;;;2602748;54;20025;31
2023/09/28 11:58:17;;;;;;;6.83;2.70;;;27.40;95.60;;;;;;2622184;46;20049;31
2023/09/28 12:00:59;;;;;;;3.85;2.42;;;27.40;95.60;;;;;;2603801;54;21208;31
2023/09/28 12:03:38;;;;;;;4.47;2.83;;;27.30;94.50;;;;;;2603326;54;20026;31
2023/09/28 12:06:14;;;;;;;5.70;2.55;;;27.30;94.80;;;;;;2602761;54;20883;31
2023/09/28 12:08:51;;;;;;;4.40;2.72;;;27.30;93.80;;;;;;2603338;54;20867;31
2023/09/28 12:11:30;;;;;;;3.83;2.50;;;27.30;94.40;;;;;;2621879;46;20026;31
2023/09/28 12:14:05;;;;;;;4.50;2.20;;;27.30;94.10;;;;;;2622086;46;20026;31
2023/09/28 12:16:43;;;;;;;4.10;2.60;;;27.30;93.00;;;;;;2603246;54;20026;31
2023/09/28 12:19:23;;;;;;;3.20;2.40;;;27.30;92.90;;;;;;2602612;54;20806;31
2023/09/28 12:22:03;;;;;;;4.33;1.90;;;27.40;92.40;;;;;;2603534;54;20052;31
2023/09/28 12:24:43;;;;;;;3.95;2.42;;;27.40;92.10;;;;;;2602575;54;20822;31
2023/09/28 12:27:24;;;;;;;4.03;2.50;;;27.50;92.10;;;;;;2602788;54;20022;31
2023/09/28 12:30:02;;;;;;;3.80;2.10;;;27.40;91.30;;;;;;2602606;54;20023;31
2023/09/28 12:32:38;;;;;;;3.53;2.10;;;27.40;90.70;;;;;;2603370;54;20074;31
2023/09/28 12:35:15;;;;;;;5.20;2.10;;;27.30;91.50;;;;;;2621933;46;20149;31
2023/09/28 12:37:56;;;;;;;5.00;2.55;;;27.30;91.00;;;;;;2603501;54;20033;31
2023/09/28 12:40:35;;;;;;;4.15;2.20;;;27.30;90.70;;;;;;2603368;54;20022;31
2023/09/28 12:43:10;;;;;;;12.15;2.60;;;27.20;90.70;;;;;;2603446;54;20863;31
2023/09/28 12:45:51;;;;;;;5.15;1.88;;;27.30;91.10;;;;;;2603320;54;20850;31
2023/09/28 12:48:31;;;;;;;7.72;2.50;;;27.30;90.40;;;;;;2603366;54;20034;31
2023/09/28 12:51:16;;;;;;;6.43;2.88;;;27.20;90.50;;;;;;2603375;54;20041;31
2023/09/28 12:53:53;;;;;;;3.47;2.17;;;27.20;90.70;;;;;;2603404;54;20900;31
2023/09/28 12:56:30;;;;;;;4.88;2.20;;;27.20;90.30;;;;;;2603191;54;20042;31
2023/09/28 12:59:07;;;;;;;4.65;2.40;;;27.20;90.90;;;;;;2602565;54;20030;31
2023/09/28 13:01:48;;;;;;;4.07;2.10;;;27.10;90.00;;;;;;2603160;54;20121;31
2023/09/28 13:04:24;;;;;;;4.18;2.20;;;27.20;90.60;;;;;;2621374;46;20029;31
2023/09/28 13:07:00;;;;;;;5.03;2.17;;;27.20;90.70;;;;;;2603256;54;20027;31
2023/09/28 13:09:42;;;;;;;9.77;2.67;;;27.30;91.10;;;;;;2618169;46;20911;31
2023/09/28 13:12:21;;;;;;;5.93;2.65;;;27.30;90.80;;;;;;2603337;54;21211;31
2023/09/28 13:14:58;;;;;;;3.88;2.45;;;27.30;89.90;;;;;;2621143;46;20908;31
2023/09/28 13:17:40;;;;;;;3.50;1.80;;;27.20;90.20;;;;;;2621542;47;20924;31
2023/09/28 13:20:26;;;;;;;4.53;2.05;;;27.20;90.00;;;;;;2603559;54;20027;31
2023/09/28 13:23:06;;;;;;;3.28;2.03;;;27.20;90.70;;;;;;2603914;54;20027;31
2023/09/28 13:25:49;;;;;;;10.15;2.60;;;27.20;88.70;;;;;;2622219;46;20030;31
2023/09/28 13:28:29;;;;;;;4.55;2.40;;;27.20;88.20;;;;;;2603399;54;20041;31
2023/09/28 13:31:11;;;;;;;3.70;2.00;;;27.10;88.50;;;;;;2604351;54;20050;31
2023/09/28 13:33:55;;;;;;;9.37;2.33;;;27.10;87.60;;;;;;2603933;54;20034;31
2023/09/28 13:36:33;;;;;;;4.28;2.15;;;27.10;87.80;;;;;;2603644;54;20364;31
2023/09/28 13:39:26;;;;;;;5.25;2.20;;;27.10;88.90;;;;;;2603146;54;20038;31
2023/09/28 13:42:05;;;;;;;6.15;2.08;;;27.10;87.20;;;;;;2603743;54;20905;31
2023/09/28 13:44:43;;;;;;;3.03;2.10;;;27.00;88.10;;;;;;2603798;54;20034;31
2023/09/28 13:47:26;;;;;;;5.55;2.28;;;27.00;87.40;;;;;;2622074;46;20031;31
2023/09/28 13:50:10;;;;;;;4.93;1.98;;;27.00;86.30;;;;;;2603150;54;20113;31
2023/09/28 13:52:49;;;;;;;4.18;1.92;;;27.00;87.40;;;;;;2603008;54;20887;31
2023/09/28 13:55:27;;;;;;;11.32;2.88;;;27.00;87.10;;;;;;2603659;54;20030;31
2023/09/28 13:58:12;;;;;;;7.55;2.35;;;27.00;86.00;;;;;;2602887;54;20072;31
2023/09/28 14:00:50;;;;;;;;;;;27.00;87.20;;;;;;2603527;54;20033;31
2023/09/28 14:03:31;;;;;;;4.10;2.45;;;26.90;86.10;;;;;;2617520;46;19942;31
2023/09/28 14:06:14;;;;;;;4.40;2.00;;;26.90;87.50;;;;;;2603756;54;20057;31